Time,TemperatureF,DewpointF,PressureIn,WindDirection,WindDirectionDegrees,WindSpeedMPH,WindSpeedGustMPH,Humidity,HourlyPrecipIn,Conditions,Clouds,dailyrainin,SolarRadiationWatts/m^2,SoftwareType,DateUTC
2013-04-10 00:02:00,28.0,14.0,-100.00,ESE,106,6.0,7.0,56,0.00,,,0.02,0.000000,,2013-04-10 06:02:00,
2013-04-10 00:12:00,28.0,14.0,-100.00,ESE,106,6.0,7.0,56,0.00,,,0.02,0.000000,,2013-04-10 06:12:00,
2013-04-10 00:42:00,26.0,15.0,-100.00,ESE,107,5.0,6.0,62,0.00,,,0.02,0.000000,,2013-04-10 06:42:00,
2013-04-10 00:52:00,26.0,15.0,-100.00,ESE,107,5.0,6.0,62,0.00,,,0.02,0.000000,,2013-04-10 06:52:00,
2013-04-10 01:02:00,26.0,15.0,-100.00,ESE,107,5.0,6.0,62,0.00,,,0.02,0.000000,,2013-04-10 07:02:00,
2013-04-10 01:12:00,26.0,15.0,-100.00,ESE,107,5.0,6.0,62,0.00,,,0.02,0.000000,,2013-04-10 07:12:00,
2013-04-10 01:43:00,24.0,15.0,-100.00,East,79,1.0,8.0,69,0.00,,,0.02,0.000000,,2013-04-10 07:43:00,
2013-04-10 01:52:00,24.0,15.0,-100.00,East,79,1.0,8.0,69,0.00,,,0.02,0.000000,,2013-04-10 07:52:00,
2013-04-10 02:02:00,24.0,15.0,-100.00,East,79,1.0,8.0,69,0.00,,,0.02,0.000000,,2013-04-10 08:02:00,
2013-04-10 02:11:00,24.0,15.0,-100.00,East,79,1.0,8.0,69,0.00,,,0.02,0.000000,,2013-04-10 08:11:00,
2013-04-10 02:42:00,23.0,15.0,-100.00,East,83,2.0,7.0,70,0.00,,,0.02,0.000000,,2013-04-10 08:42:00,
2013-04-10 02:52:00,23.0,15.0,-100.00,East,83,2.0,7.0,70,0.00,,,0.02,0.000000,,2013-04-10 08:52:00,
2013-04-10 03:02:00,23.0,15.0,-100.00,East,83,2.0,7.0,70,0.00,,,0.02,0.000000,,2013-04-10 09:02:00,
2013-04-10 03:12:00,23.0,15.0,-100.00,East,83,2.0,7.0,70,0.00,,,0.02,0.000000,,2013-04-10 09:12:00,
2013-04-10 03:43:00,26.0,19.0,-100.00,SSE,147,2.0,6.0,74,0.00,,,0.02,0.000000,,2013-04-10 09:43:00,
2013-04-10 03:53:00,26.0,19.0,-100.00,SSE,147,2.0,6.0,74,0.00,,,0.02,0.000000,,2013-04-10 09:53:00,
2013-04-10 04:02:00,26.0,19.0,-100.00,SSE,147,2.0,6.0,74,0.00,,,0.02,0.000000,,2013-04-10 10:02:00,
2013-04-10 04:12:00,26.0,19.0,-100.00,SSE,147,2.0,6.0,74,0.00,,,0.02,0.000000,,2013-04-10 10:12:00,
2013-04-10 04:33:00,28.0,20.0,-100.00,SE,129,3.0,6.0,72,0.00,,,0.02,0.000000,,2013-04-10 10:33:00,
2013-04-10 04:43:00,28.0,20.0,-100.00,SE,129,3.0,6.0,72,0.00,,,0.02,0.000000,,2013-04-10 10:43:00,
2013-04-10 04:52:00,28.0,20.0,-100.00,SE,129,3.0,6.0,72,0.00,,,0.02,0.000000,,2013-04-10 10:52:00,
2013-04-10 05:02:00,28.0,20.0,-100.00,SE,129,3.0,6.0,72,0.00,,,0.02,0.000000,,2013-04-10 11:02:00,
2013-04-10 05:12:00,28.0,20.0,-100.00,SE,129,3.0,6.0,72,0.00,,,0.02,0.000000,,2013-04-10 11:12:00,
2013-04-10 07:43:00,33.0,22.0,-100.00,SE,141,5.0,8.0,63,-99.99,,,0.02,3.000000,,2013-04-10 13:43:00,
2013-04-10 07:53:00,33.0,22.0,-100.00,SE,141,5.0,8.0,63,-99.99,,,0.02,3.000000,,2013-04-10 13:53:00,
2013-04-10 08:02:00,33.0,22.0,-100.00,SE,141,5.0,8.0,63,-99.99,,,0.02,3.000000,,2013-04-10 14:02:00,
2013-04-10 08:12:00,33.0,22.0,-100.00,SE,141,5.0,8.0,63,-99.99,,,0.02,3.000000,,2013-04-10 14:12:00,
2013-04-10 08:33:00,35.0,22.0,-100.00,SE,135,6.0,11.0,59,0.00,,,0.02,39.000000,,2013-04-10 14:33:00,
2013-04-10 08:42:00,35.0,22.0,-100.00,SE,135,6.0,11.0,59,0.00,,,0.02,39.000000,,2013-04-10 14:42:00,
2013-04-10 08:52:00,35.0,22.0,-100.00,SE,135,6.0,11.0,59,0.00,,,0.02,39.000000,,2013-04-10 14:52:00,
2013-04-10 09:02:00,35.0,22.0,-100.00,SE,135,6.0,11.0,59,0.00,,,0.02,39.000000,,2013-04-10 15:02:00,
2013-04-10 09:12:00,35.0,22.0,-100.00,SE,135,6.0,11.0,59,0.00,,,0.02,39.000000,,2013-04-10 15:12:00,
2013-04-10 10:33:00,39.0,24.0,-100.00,South,176,9.0,13.0,54,-99.99,,,0.02,146.000000,,2013-04-10 16:33:00,
2013-04-10 10:43:00,39.0,24.0,-100.00,South,176,9.0,13.0,54,-99.99,,,0.02,146.000000,,2013-04-10 16:43:00,
2013-04-10 10:53:00,39.0,24.0,-100.00,South,176,9.0,13.0,54,-99.99,,,0.02,146.000000,,2013-04-10 16:53:00,
2013-04-10 11:02:00,39.0,24.0,-100.00,South,176,9.0,13.0,54,-99.99,,,0.02,146.000000,,2013-04-10 17:02:00,
2013-04-10 11:12:00,39.0,24.0,-100.00,South,176,9.0,13.0,54,-99.99,,,0.02,146.000000,,2013-04-10 17:12:00,
2013-04-10 11:34:00,42.0,25.0,-100.00,South,174,7.0,13.0,51,0.00,,,0.02,326.000000,,2013-04-10 17:34:00,
2013-04-10 11:43:00,42.0,25.0,-100.00,South,174,7.0,13.0,51,0.00,,,0.02,326.000000,,2013-04-10 17:43:00,
2013-04-10 11:52:00,42.0,25.0,-100.00,South,174,7.0,13.0,51,0.00,,,0.02,326.000000,,2013-04-10 17:52:00,
2013-04-10 12:12:00,42.0,25.0,-100.00,South,174,7.0,13.0,51,0.00,,,0.02,326.000000,,2013-04-10 18:12:00,
2013-04-10 12:43:00,47.0,28.0,-100.00,South,184,7.0,12.0,47,0.00,,,0.00,605.000000,,2013-04-10 18:43:00,
2013-04-10 12:52:00,47.0,28.0,-100.00,South,184,7.0,12.0,47,0.00,,,0.00,605.000000,,2013-04-10 18:52:00,
2013-04-10 13:02:00,47.0,28.0,-100.00,South,184,7.0,12.0,47,0.00,,,0.00,605.000000,,2013-04-10 19:02:00,
2013-04-10 13:12:00,47.0,28.0,-100.00,South,184,7.0,12.0,47,0.00,,,0.00,605.000000,,2013-04-10 19:12:00,
2013-04-10 13:42:00,49.0,29.0,-100.00,SSE,163,5.0,13.0,46,0.00,,,0.00,409.000000,,2013-04-10 19:42:00,
2013-04-10 13:53:00,49.0,29.0,-100.00,SSE,163,5.0,13.0,46,0.00,,,0.00,409.000000,,2013-04-10 19:53:00,
2013-04-10 14:02:00,49.0,29.0,-100.00,SSE,163,5.0,13.0,46,0.00,,,0.00,409.000000,,2013-04-10 20:02:00,
2013-04-10 14:12:00,49.0,29.0,-100.00,SSE,163,5.0,13.0,46,0.00,,,0.00,409.000000,,2013-04-10 20:12:00,
2013-04-10 14:42:00,51.0,31.0,-100.00,SSW,208,10.0,15.0,46,0.00,,,0.00,347.000000,,2013-04-10 20:42:00,
2013-04-10 14:52:00,51.0,31.0,-100.00,SSW,208,10.0,15.0,46,0.00,,,0.00,347.000000,,2013-04-10 20:52:00,
2013-04-10 15:02:00,51.0,31.0,-100.00,SSW,208,10.0,15.0,46,0.00,,,0.00,347.000000,,2013-04-10 21:02:00,
2013-04-10 15:12:00,51.0,31.0,-100.00,SSW,208,10.0,15.0,46,0.00,,,0.00,347.000000,,2013-04-10 21:12:00,
2013-04-10 15:43:00,52.0,33.0,-100.00,SSW,211,9.0,20.0,48,0.00,,,0.00,424.000000,,2013-04-10 21:43:00,
2013-04-10 15:53:00,52.0,33.0,-100.00,SSW,211,9.0,20.0,48,0.00,,,0.00,424.000000,,2013-04-10 21:53:00,
2013-04-10 16:03:00,52.0,33.0,-100.00,SSW,211,9.0,20.0,48,0.00,,,0.00,424.000000,,2013-04-10 22:03:00,
2013-04-10 16:12:00,52.0,33.0,-100.00,SSW,211,9.0,20.0,48,0.00,,,0.00,424.000000,,2013-04-10 22:12:00,
2013-04-10 16:43:00,54.0,34.0,-100.00,SW,218,10.0,20.0,47,0.00,,,0.00,492.000000,,2013-04-10 22:43:00,
2013-04-10 16:53:00,54.0,34.0,-100.00,SW,218,10.0,20.0,47,0.00,,,0.00,492.000000,,2013-04-10 22:53:00,
2013-04-10 17:02:00,54.0,34.0,-100.00,SW,218,10.0,20.0,47,0.00,,,0.00,492.000000,,2013-04-10 23:02:00,
2013-04-10 17:12:00,54.0,34.0,-100.00,SW,218,10.0,20.0,47,0.00,,,0.00,492.000000,,2013-04-10 23:12:00,
2013-04-10 17:33:00,48.0,38.0,-100.00,WSW,251,7.0,21.0,69,0.00,,,0.00,170.000000,,2013-04-10 23:33:00,
2013-04-10 17:43:00,48.0,38.0,-100.00,WSW,251,7.0,21.0,69,0.00,,,0.00,170.000000,,2013-04-10 23:43:00,
2013-04-10 17:52:00,48.0,38.0,-100.00,WSW,251,7.0,21.0,69,0.00,,,0.00,170.000000,,2013-04-10 23:52:00,
2013-04-10 18:02:00,48.0,38.0,-100.00,WSW,251,7.0,21.0,69,0.00,,,0.00,170.000000,,2013-04-11 00:02:00,
2013-04-10 18:11:00,48.0,38.0,-100.00,WSW,251,7.0,21.0,69,0.00,,,0.00,170.000000,,2013-04-11 00:11:00,
2013-04-10 18:42:00,50.0,34.0,-100.00,SSW,208,9.0,17.0,55,0.00,,,0.00,456.000000,,2013-04-11 00:42:00,
2013-04-10 18:53:00,50.0,34.0,-100.00,SSW,208,9.0,17.0,55,0.00,,,0.00,456.000000,,2013-04-11 00:53:00,
2013-04-10 19:02:00,50.0,34.0,-100.00,SSW,208,9.0,17.0,55,0.00,,,0.00,456.000000,,2013-04-11 01:02:00,
2013-04-10 19:12:00,50.0,34.0,-100.00,SSW,208,9.0,17.0,55,0.00,,,0.00,456.000000,,2013-04-11 01:12:00,
2013-04-10 19:42:00,46.0,32.0,-100.00,SW,235,13.0,19.0,58,0.00,,,0.00,83.000000,,2013-04-11 01:42:00,
2013-04-10 19:52:00,46.0,32.0,-100.00,SW,235,13.0,19.0,58,0.00,,,0.00,83.000000,,2013-04-11 01:52:00,
2013-04-10 20:02:00,46.0,32.0,-100.00,SW,235,13.0,19.0,58,0.00,,,0.00,83.000000,,2013-04-11 02:02:00,
2013-04-10 20:12:00,46.0,32.0,-100.00,SW,235,13.0,19.0,58,0.00,,,0.00,83.000000,,2013-04-11 02:12:00,
2013-04-10 20:52:00,44.0,33.0,-100.00,West,279,7.0,18.0,65,0.00,,,0.00,33.000000,,2013-04-11 02:52:00,
2013-04-10 21:02:00,44.0,33.0,-100.00,West,279,7.0,18.0,65,0.00,,,0.00,33.000000,,2013-04-11 03:02:00,
2013-04-10 21:12:00,44.0,33.0,-100.00,West,279,7.0,18.0,65,0.00,,,0.00,33.000000,,2013-04-11 03:12:00,
2013-04-10 21:43:00,42.0,32.0,-100.00,South,170,11.0,15.0,67,0.00,,,0.00,0.000000,,2013-04-11 03:43:00,
2013-04-10 21:53:00,42.0,32.0,-100.00,South,170,11.0,15.0,67,0.00,,,0.00,0.000000,,2013-04-11 03:53:00,
2013-04-10 22:03:00,42.0,32.0,-100.00,South,170,11.0,15.0,67,0.00,,,0.00,0.000000,,2013-04-11 04:03:00,
2013-04-10 22:12:00,42.0,32.0,-100.00,South,170,11.0,15.0,67,0.00,,,0.00,0.000000,,2013-04-11 04:12:00,
2013-04-10 22:43:00,40.0,30.0,-100.00,SW,228,11.0,17.0,66,0.00,,,0.00,0.000000,,2013-04-11 04:43:00,
2013-04-10 22:53:00,40.0,30.0,-100.00,SW,228,11.0,17.0,66,0.00,,,0.00,0.000000,,2013-04-11 04:53:00,
2013-04-10 23:02:00,40.0,30.0,-100.00,SW,228,11.0,17.0,66,0.00,,,0.00,0.000000,,2013-04-11 05:02:00,
2013-04-10 23:12:00,40.0,30.0,-100.00,SW,228,11.0,17.0,66,0.00,,,0.00,0.000000,,2013-04-11 05:12:00,
2013-04-10 23:42:00,38.0,34.0,-100.00,SE,130,6.0,11.0,86,0.00,,,0.00,0.000000,,2013-04-11 05:42:00,
2013-04-10 23:52:00,38.0,34.0,-100.00,SE,130,6.0,11.0,86,0.00,,,0.00,0.000000,,2013-04-11 05:52:00,